Time;durP1;ratioP1;P1;durP2;ratioP2;P2;SDS_P1;SDS_P2;PMS_P1;PMS_P2;Temp;Humidity;BMP_temperature;BMP_pressure;BME280_temperature;BME280_humidity;BME280_pressure;Samples;Min_cycle;Max_cycle;Signal;HPM_P1;HPM_P2
2022/10/17 17:50:16;;;;;;;3.03;1.42;;;;;;;12.76;64.44;101142.91;5039032;22;20616;-48
2022/10/17 17:52:45;;;;;;;6.95;2.55;;;;;;;12.72;64.57;101142.81;4998767;28;20038;-45
2022/10/17 17:55:12;;;;;;;8.75;2.75;;;;;;;12.69;64.75;101156.56;5000355;28;20042;-44
2022/10/17 17:57:38;;;;;;;9.20;2.90;;;;;;;12.66;65.06;101158.09;5004108;28;20046;-44
2022/10/17 18:00:06;;;;;;;8.43;3.00;;;;;;;12.62;65.03;101161.91;4998718;28;20407;-43
2022/10/17 18:02:34;;;;;;;7.15;2.03;;;;;;;12.55;65.13;101172.81;5001665;28;20088;-47
2022/10/17 18:05:04;;;;;;;8.13;2.53;;;;;;;12.47;65.39;101180.06;4999484;28;20047;-44
2022/10/17 18:07:31;;;;;;;7.25;2.53;;;;;;;12.45;65.47;101182.41;5002979;28;20100;-45
2022/10/17 18:09:57;;;;;;;5.47;2.53;;;;;;;12.42;65.72;101188.63;5004305;28;20046;-46
2022/10/17 18:12:24;;;;;;;4.90;2.65;;;;;;;12.36;65.98;101195.59;5001137;28;20054;-44
2022/10/17 18:14:51;;;;;;;7.28;2.78;;;;;;;12.32;65.99;101194.66;5004153;28;20488;-43
2022/10/17 18:17:17;;;;;;;4.38;2.70;;;;;;;12.30;66.14;101193.38;5003104;28;20064;-52
2022/10/17 18:19:44;;;;;;;9.60;3.17;;;;;;;12.25;66.38;101208.31;4999196;28;20086;-44
2022/10/17 18:22:11;;;;;;;9.13;3.35;;;;;;;12.23;66.46;101204.25;5002979;28;20049;-46
2022/10/17 18:24:37;;;;;;;5.40;3.00;;;;;;;12.17;66.63;101209.22;4999931;28;20052;-44
2022/10/17 18:27:04;;;;;;;5.97;3.80;;;;;;;12.14;66.81;101215.47;4997546;28;20046;-45
2022/10/17 18:29:31;;;;;;;10.70;3.75;;;;;;;12.09;67.02;101218.47;5000395;28;20058;-44
2022/10/17 18:31:58;;;;;;;6.00;3.88;;;;;;;12.09;67.14;101215.69;4996969;28;20054;-48
2022/10/17 18:34:26;;;;;;;13.30;5.15;;;;;;;12.08;67.14;101233.47;5002137;28;20074;-45
2022/10/17 18:36:53;;;;;;;25.33;5.30;;;;;;;12.04;67.08;101238.94;4998263;28;20041;-44
2022/10/17 18:39:20;;;;;;;7.57;4.22;;;;;;;12.02;67.46;101246.75;4996923;28;20061;-44
2022/10/17 18:41:47;;;;;;;11.57;4.22;;;;;;;11.99;67.58;101239.13;5001258;28;20042;-45
2022/10/17 18:44:15;;;;;;;9.52;4.03;;;;;;;11.97;67.56;101248.94;4998916;28;20077;-48
2022/10/17 18:46:43;;;;;;;10.95;4.82;;;;;;;11.92;67.83;101246.38;4998575;28;20046;-52
2022/10/17 18:49:14;;;;;;;13.88;3.85;;;;;;;11.91;67.87;101247.56;5000300;28;20059;-44
2022/10/17 18:51:41;;;;;;;6.95;3.35;;;;;;;11.87;68.06;101255.75;5000837;28;20046;-45
2022/10/17 18:54:15;;;;;;;6.30;3.08;;;;;;;11.86;68.23;101258.88;5003667;28;20057;-47
2022/10/17 18:56:43;;;;;;;10.82;2.60;;;;;;;11.85;68.27;101254.47;4999092;28;20048;-50
2022/10/17 18:59:10;;;;;;;6.57;2.80;;;;;;;11.81;68.27;101267.41;4998434;28;20053;-44
2022/10/17 19:01:37;;;;;;;9.98;2.72;;;;;;;11.77;68.49;101260.91;4981924;28;20145;-50
2022/10/17 19:04:04;;;;;;;7.30;2.97;;;;;;;11.74;68.54;101281.00;4988486;28;20053;-44
2022/10/17 19:06:31;;;;;;;6.45;2.45;;;;;;;11.70;68.64;101278.09;4989409;28;20052;-43
2022/10/17 19:08:59;;;;;;;9.07;2.95;;;;;;;11.67;68.97;101291.81;4982990;28;20053;-44
2022/10/17 19:11:27;;;;;;;6.25;3.53;;;;;;;11.66;68.97;101290.16;4982820;28;20042;-44
2022/10/17 19:14:00;;;;;;;5.57;2.85;;;;;;;11.61;69.12;101296.75;4982585;28;20512;-43
2022/10/17 19:16:35;;;;;;;6.78;3.10;;;;;;;11.61;69.13;101302.28;4984243;28;20084;-44
2022/10/17 19:19:10;;;;;;;12.85;3.70;;;;;;;11.59;69.40;101304.59;4985869;28;20509;-46
2022/10/17 19:21:37;;;;;;;6.45;3.55;;;;;;;11.56;69.45;101314.41;4987981;28;20042;-43
2022/10/17 19:24:06;;;;;;;8.30;3.22;;;;;;;11.54;69.43;101313.13;4988452;28;20428;-45
2022/10/17 19:26:35;;;;;;;11.20;3.97;;;;;;;11.50;69.71;101312.97;4981369;28;20039;-44
2022/10/17 19:29:03;;;;;;;11.88;4.20;;;;;;;11.47;69.90;101307.28;4988312;28;20050;-45
2022/10/17 19:31:31;;;;;;;12.10;4.80;;;;;;;11.43;69.90;101312.72;4984645;28;20070;-43
2022/10/17 19:33:59;;;;;;;10.13;3.95;;;;;;;11.38;70.06;101315.69;4986630;28;20051;-44
2022/10/17 19:36:27;;;;;;;8.82;3.80;;;;;;;11.35;70.18;101327.44;4990891;28;20073;-45
2022/10/17 19:39:04;;;;;;;12.63;5.07;;;;;;;11.32;70.31;101330.88;4986028;28;20516;-48
2022/10/17 19:41:31;;;;;;;11.25;4.35;;;;;;;11.32;70.34;101343.91;4976345;28;20057;-46
2022/10/17 19:43:59;;;;;;;11.32;4.40;;;;;;;11.28;70.56;101351.31;4985334;28;20046;-46
2022/10/17 19:46:27;;;;;;;12.88;4.78;;;;;;;11.24;70.72;101348.38;4984364;28;20053;-47
2022/10/17 19:48:54;;;;;;;13.93;6.00;;;;;;;11.22;71.00;101347.91;4988004;28;20550;-44
2022/10/17 19:51:23;;;;;;;8.10;4.03;;;;;;;11.19;71.16;101350.53;4987036;28;20045;-44
2022/10/17 19:53:51;;;;;;;11.45;4.78;;;;;;;11.18;71.28;101354.44;4988912;28;22532;-43
2022/10/17 19:56:19;;;;;;;12.10;4.03;;;;;;;11.15;71.46;101361.47;4986298;28;20065;-49
2022/10/17 19:58:48;;;;;;;12.75;5.60;;;;;;;11.13;71.41;101369.28;4985205;28;20113;-45
2022/10/17 20:01:19;;;;;;;5.35;3.80;;;;;;;11.07;71.72;101375.38;4982036;28;20057;-46
2022/10/17 20:03:46;;;;;;;8.18;4.07;;;;;;;11.00;71.89;101381.41;4984894;28;20042;-45
2022/10/17 20:06:13;;;;;;;13.00;6.05;;;;;;;10.96;72.14;101394.31;4986363;28;20047;-43
2022/10/17 20:08:40;;;;;;;8.00;3.45;;;;;;;10.97;72.25;101409.78;4983812;28;20590;-44
2022/10/17 20:11:11;;;;;;;21.52;6.57;;;;;;;10.97;72.15;101410.59;4981623;28;20137;-43
2022/10/17 20:13:39;;;;;;;10.77;4.32;;;;;;;10.96;72.18;101419.25;4985853;28;20427;-44
2022/10/17 20:16:10;;;;;;;10.38;5.68;;;;;;;10.94;72.47;101427.06;4985391;28;20080;-49
2022/10/17 20:18:39;;;;;;;11.07;4.65;;;;;;;10.87;72.53;101426.78;4981159;28;20042;-43
2022/10/17 20:21:10;;;;;;;10.07;4.70;;;;;;;10.81;72.72;101433.63;4981731;28;20488;-44
2022/10/17 20:23:38;;;;;;;8.70;4.20;;;;;;;10.76;72.93;101436.56;4981600;28;20151;-47
2022/10/17 20:26:09;;;;;;;9.77;4.15;;;;;;;10.71;73.16;101434.81;4983180;28;20070;-43
2022/10/17 20:28:56;;;;;;;8.25;4.38;;;;;;;10.66;73.34;101434.97;4980197;28;20057;-44
2022/10/17 20:31:23;;;;;;;10.68;4.38;;;;;;;10.65;73.40;101435.28;4982961;28;20074;-44
2022/10/17 20:33:58;;;;;;;8.65;3.92;;;;;;;10.64;73.39;101450.28;4980243;28;20480;-44
2022/10/17 20:36:25;;;;;;;12.63;5.00;;;;;;;10.60;73.43;101455.66;4986306;28;20050;-45
2022/10/17 20:38:54;;;;;;;11.07;4.93;;;;;;;10.58;73.63;101462.69;4986841;28;20046;-48
2022/10/17 20:41:22;;;;;;;9.02;4.57;;;;;;;10.53;73.58;101455.38;4979671;28;20050;-48
2022/10/17 20:43:50;;;;;;;8.88;3.60;;;;;;;10.49;73.79;101470.16;4986209;28;20042;-44
2022/10/17 20:46:19;;;;;;;12.38;5.55;;;;;;;10.47;73.90;101462.19;4981346;28;20046;-45
2022/10/17 20:49:06;;;;;;;13.35;5.40;;;;;;;10.42;74.08;101469.84;4985718;28;20140;-44
2022/10/17 20:51:34;;;;;;;9.68;4.80;;;;;;;10.42;74.04;101483.69;4985992;28;20575;-45
2022/10/17 20:54:01;;;;;;;15.68;4.97;;;;;;;10.37;74.11;101487.44;4978903;28;20054;-47
2022/10/17 20:56:30;;;;;;;10.23;4.25;;;;;;;10.37;74.19;101488.28;4983129;28;20097;-43
2022/10/17 20:59:04;;;;;;;8.93;4.60;;;;;;;10.33;74.25;101505.84;4975794;28;20508;-44
2022/10/17 21:01:32;;;;;;;7.43;4.03;;;;;;;10.29;74.38;101521.47;4984794;28;20047;-44
2022/10/17 21:03:59;;;;;;;6.80;3.83;;;;;;;10.27;74.44;101516.25;4979242;28;20221;-48
2022/10/17 21:06:47;;;;;;;7.93;4.03;;;;;;;10.22;74.46;101510.06;4970781;28;20038;-48
2022/10/17 21:09:13;;;;;;;10.95;4.43;;;;;;;10.19;74.83;101513.50;4986298;28;20630;-49
2022/10/17 21:11:41;;;;;;;14.00;3.70;;;;;;;10.14;74.81;101519.97;4986062;28;20042;-46
2022/10/17 21:14:09;;;;;;;10.65;3.88;;;;;;;10.12;75.05;101533.31;4973411;28;20512;-46
2022/10/17 21:16:38;;;;;;;12.35;5.07;;;;;;;10.11;74.96;101537.19;4984638;28;20056;-45
2022/10/17 21:19:05;;;;;;;10.27;4.70;;;;;;;10.08;75.26;101540.63;4985317;28;20391;-51
2022/10/17 21:21:34;;;;;;;11.90;4.50;;;;;;;10.04;74.99;101542.38;4987646;28;20053;-46
2022/10/17 21:24:04;;;;;;;10.38;5.20;;;;;;;10.00;75.47;101530.34;4980534;28;20088;-45
2022/10/17 21:26:33;;;;;;;9.93;6.47;;;;;;;9.94;75.42;101531.63;4983818;28;20447;-46
2022/10/17 21:29:04;;;;;;;15.32;5.15;;;;;;;9.92;75.54;101536.69;4983101;28;20042;-45
2022/10/17 21:31:33;;;;;;;16.85;6.10;;;;;;;9.91;75.74;101542.50;4983127;28;20064;-47
2022/10/17 21:34:08;;;;;;;14.05;5.40;;;;;;;9.90;75.77;101558.28;4982153;28;20519;-43
2022/10/17 21:36:35;;;;;;;9.88;4.82;;;;;;;9.93;76.04;101552.13;4985737;28;20539;-50
2022/10/17 21:39:03;;;;;;;8.95;5.22;;;;;;;9.95;75.92;101549.06;4984987;28;20065;-46
2022/10/17 21:41:30;;;;;;;14.32;7.03;;;;;;;9.96;75.85;101561.72;4982108;28;20035;-44
2022/10/17 21:44:05;;;;;;;14.13;8.52;;;;;;;9.92;75.86;101569.06;4986885;28;20046;-44
2022/10/17 21:46:33;;;;;;;23.65;9.55;;;;;;;9.92;75.97;101578.16;4981330;28;20054;-43
2022/10/17 21:48:59;;;;;;;14.85;8.98;;;;;;;9.90;76.02;101579.63;4984317;28;20050;-44
2022/10/17 21:51:27;;;;;;;17.90;8.10;;;;;;;9.86;76.15;101584.97;4983536;28;20378;-49
2022/10/17 21:53:55;;;;;;;15.57;7.65;;;;;;;9.80;76.48;101583.47;4984566;28;20054;-43
2022/10/17 21:56:26;;;;;;;14.98;6.75;;;;;;;9.78;76.63;101585.75;4983327;28;20058;-44
2022/10/17 21:58:54;;;;;;;10.77;5.93;;;;;;;9.74;76.59;101588.34;4979809;28;20133;-46
2022/10/17 22:01:23;;;;;;;14.40;5.78;;;;;;;9.75;76.75;101589.97;4978309;28;20046;-43
2022/10/17 22:03:53;;;;;;;13.30;4.50;;;;;;;9.70;76.76;101581.81;4985714;28;20451;-43
2022/10/17 22:06:22;;;;;;;10.85;4.50;;;;;;;9.65;76.97;101590.25;4982808;28;20061;-45
2022/10/17 22:09:11;;;;;;;12.93;4.78;;;;;;;9.60;76.97;101597.88;4977280;28;20061;-43
2022/10/17 22:11:38;;;;;;;11.18;3.78;;;;;;;9.58;77.05;101594.63;4986285;28;20042;-47
2022/10/17 22:14:13;;;;;;;11.70;5.03;;;;;;;9.57;77.24;101598.50;4975417;28;20048;-44
2022/10/17 22:16:40;;;;;;;11.48;4.15;;;;;;;9.56;77.22;101608.75;4985298;28;20382;-51
2022/10/17 22:19:10;;;;;;;14.48;4.50;;;;;;;9.51;77.11;101622.69;4985787;28;20467;-49
2022/10/17 22:21:37;;;;;;;6.30;3.78;;;;;;;9.47;77.37;101618.13;4987226;28;20385;-43
2022/10/17 22:24:07;;;;;;;9.07;4.85;;;;;;;9.45;77.40;101610.13;4985166;28;20046;-46
2022/10/17 22:26:36;;;;;;;17.48;5.60;;;;;;;9.45;77.43;101623.16;4987324;28;20074;-45
2022/10/17 22:29:04;;;;;;;13.93;6.53;;;;;;;9.44;77.60;101619.59;4988321;28;20048;-45
2022/10/17 22:31:31;;;;;;;13.27;4.32;;;;;;;9.41;77.59;101627.69;4985685;28;20053;-42
2022/10/17 22:33:59;;;;;;;15.55;5.38;;;;;;;9.40;77.78;101618.56;4986820;28;20046;-43
2022/10/17 22:36:26;;;;;;;9.73;3.95;;;;;;;9.35;77.79;101615.13;4989904;28;20038;-42
2022/10/17 22:38:53;;;;;;;11.32;4.05;;;;;;;9.28;78.09;101625.81;4989939;28;20050;-42
2022/10/17 22:41:19;;;;;;;9.68;3.53;;;;;;;9.29;78.12;101627.44;4988100;28;20042;-42
2022/10/17 22:43:49;;;;;;;12.98;4.00;;;;;;;9.28;78.09;101634.09;4982272;28;20381;-41
2022/10/17 22:46:16;;;;;;;7.93;3.60;;;;;;;9.25;78.18;101629.19;4992463;28;20089;-42
2022/10/17 22:48:43;;;;;;;10.68;4.28;;;;;;;9.25;78.19;101634.72;4992194;28;20420;-49
2022/10/17 22:51:10;;;;;;;10.82;5.03;;;;;;;9.21;78.20;101630.97;4991399;28;20393;-42
2022/10/17 22:53:37;;;;;;;8.25;3.30;;;;;;;9.19;78.28;101629.31;4985373;28;20046;-43
2022/10/17 22:56:10;;;;;;;10.73;3.35;;;;;;;9.18;78.54;101636.00;4990353;28;20050;-47
2022/10/17 22:58:38;;;;;;;6.25;3.28;;;;;;;9.14;78.36;101629.47;4980567;28;20185;-41
2022/10/17 23:01:07;;;;;;;8.57;3.40;;;;;;;9.11;78.43;101627.31;4982308;28;20102;-49
2022/10/17 23:03:34;;;;;;;6.80;3.38;;;;;;;9.06;78.47;101637.69;4989316;28;20049;-42
2022/10/17 23:06:02;;;;;;;10.18;4.13;;;;;;;8.97;78.67;101643.16;4984466;28;20308;-46
2022/10/17 23:08:29;;;;;;;10.15;4.10;;;;;;;8.92;78.71;101636.94;4991612;28;20138;-42
2022/10/17 23:10:56;;;;;;;8.82;4.45;;;;;;;8.93;78.69;101642.13;4990658;28;20065;-42
2022/10/17 23:13:23;;;;;;;9.93;5.05;;;;;;;8.91;78.63;101638.88;4990565;28;20054;-43
2022/10/17 23:15:54;;;;;;;10.07;5.43;;;;;;;8.89;78.77;101629.28;4990638;28;20050;-42
2022/10/17 23:18:22;;;;;;;10.10;5.15;;;;;;;8.87;78.73;101635.09;4997074;28;20031;-42
2022/10/17 23:20:49;;;;;;;12.90;6.20;;;;;;;8.87;78.94;101640.59;4987648;28;20489;-44
2022/10/17 23:23:16;;;;;;;13.45;5.00;;;;;;;8.86;78.91;101622.44;4991442;28;20057;-43
2022/10/17 23:25:43;;;;;;;12.00;5.28;;;;;;;8.86;78.95;101633.47;4991789;28;20125;-47
2022/10/17 23:28:10;;;;;;;16.20;5.40;;;;;;;8.86;78.87;101639.00;4990033;28;20061;-42
2022/10/17 23:30:38;;;;;;;11.73;6.50;;;;;;;8.90;78.86;101634.47;4989851;28;20043;-43
2022/10/17 23:33:05;;;;;;;13.00;7.00;;;;;;;8.92;78.73;101640.47;4991271;28;20046;-41
2022/10/17 23:35:32;;;;;;;14.45;8.90;;;;;;;8.90;78.75;101644.69;4977468;28;20475;-45
2022/10/17 23:37:59;;;;;;;16.50;9.85;;;;;;;8.89;78.70;101648.59;4990949;28;20500;-45
2022/10/17 23:40:26;;;;;;;17.48;10.65;;;;;;;8.83;78.77;101639.63;4990735;28;20416;-43
2022/10/17 23:42:53;;;;;;;21.30;11.20;;;;;;;8.82;78.92;101650.94;4990614;28;20149;-42
2022/10/17 23:45:20;;;;;;;20.02;10.85;;;;;;;8.75;79.01;101656.09;4982828;28;21700;-48
2022/10/17 23:47:47;;;;;;;24.55;11.07;;;;;;;8.72;79.15;101649.25;4957611;28;20058;-45
2022/10/17 23:50:15;;;;;;;22.45;10.55;;;;;;;8.70;79.18;101648.75;4970728;28;20054;-41
2022/10/17 23:52:41;;;;;;;20.15;10.95;;;;;;;8.68;79.26;101648.25;4989388;28;20042;-44
2022/10/17 23:55:09;;;;;;;20.13;10.85;;;;;;;8.64;79.11;101655.50;4989560;28;20045;-48
2022/10/17 23:57:35;;;;;;;25.40;11.18;;;;;;;8.63;79.22;101662.13;4989490;28;20408;-41
